sensor_id;sensor_type;location;lat;lon;timestamp;pressure;altitude;pressure_sealevel;temperature;humidity
25526;BME280;13424;48.424;11.258;2023-03-13T00:00:24;95261.38;;;10.44;73.98
25526;BME280;13424;48.424;11.258;2023-03-13T00:02:49;95260.31;;;9.89;75.26
25526;BME280;13424;48.424;11.258;2023-03-13T00:05:15;95266.09;;;10.20;74.62
25526;BME280;13424;48.424;11.258;2023-03-13T00:07:41;95260.81;;;10.42;73.57
25526;BME280;13424;48.424;11.258;2023-03-13T00:10:07;95259.72;;;10.04;74.84
25526;BME280;13424;48.424;11.258;2023-03-13T00:12:33;95254.19;;;10.44;73.53
25526;BME280;13424;48.424;11.258;2023-03-13T00:14:59;95257.91;;;10.65;72.32
25526;BME280;13424;48.424;11.258;2023-03-13T00:17:24;95253.50;;;10.54;72.62
25526;BME280;13424;48.424;11.258;2023-03-13T00:19:50;95251.28;;;10.46;72.87
25526;BME280;13424;48.424;11.258;2023-03-13T00:22:16;95252.19;;;10.34;72.65
25526;BME280;13424;48.424;11.258;2023-03-13T00:24:42;95246.03;;;10.34;72.66
25526;BME280;13424;48.424;11.258;2023-03-13T00:27:08;95232.31;;;10.25;73.50
25526;BME280;13424;48.424;11.258;2023-03-13T00:29:34;95225.38;;;10.24;73.39
25526;BME280;13424;48.424;11.258;2023-03-13T00:32:00;95219.84;;;10.48;72.59
25526;BME280;13424;48.424;11.258;2023-03-13T00:34:26;95220.00;;;9.86;74.06
25526;BME280;13424;48.424;11.258;2023-03-13T00:36:53;95210.72;;;10.05;74.14
25526;BME280;13424;48.424;11.258;2023-03-13T00:39:19;95211.41;;;10.56;72.26
25526;BME280;13424;48.424;11.258;2023-03-13T00:41:46;95210.31;;;10.52;72.18
25526;BME280;13424;48.424;11.258;2023-03-13T00:44:12;95211.94;;;10.58;72.10
25526;BME280;13424;48.424;11.258;2023-03-13T00:46:38;95204.50;;;9.99;73.92
25526;BME280;13424;48.424;11.258;2023-03-13T00:49:05;95213.81;;;10.36;72.51
25526;BME280;13424;48.424;11.258;2023-03-13T00:51:38;95214.25;;;10.27;72.65
25526;BME280;13424;48.424;11.258;2023-03-13T00:54:04;95218.09;;;10.58;71.56
25526;BME280;13424;48.424;11.258;2023-03-13T00:56:30;95212.81;;;10.42;72.23
25526;BME280;13424;48.424;11.258;2023-03-13T00:58:56;95207.97;;;10.00;73.44
25526;BME280;13424;48.424;11.258;2023-03-13T01:01:28;95203.00;;;10.25;72.94
25526;BME280;13424;48.424;11.258;2023-03-13T01:04:04;95195.28;;;10.46;71.88
25526;BME280;13424;48.424;11.258;2023-03-13T01:06:33;95199.75;;;10.62;71.41
25526;BME280;13424;48.424;11.258;2023-03-13T01:09:00;95202.72;;;10.66;70.91
25526;BME280;13424;48.424;11.258;2023-03-13T01:11:40;95200.09;;;10.49;71.61
25526;BME280;13424;48.424;11.258;2023-03-13T01:14:11;95195.16;;;10.57;70.87
25526;BME280;13424;48.424;11.258;2023-03-13T01:16:38;95190.56;;;10.53;71.12
25526;BME280;13424;48.424;11.258;2023-03-13T01:19:15;95185.59;;;10.40;71.56
25526;BME280;13424;48.424;11.258;2023-03-13T01:21:42;95189.03;;;10.35;71.88
25526;BME280;13424;48.424;11.258;2023-03-13T01:24:09;95181.53;;;10.54;70.94
25526;BME280;13424;48.424;11.258;2023-03-13T01:26:34;95183.44;;;10.37;71.08
25526;BME280;13424;48.424;11.258;2023-03-13T01:29:00;95188.41;;;10.28;70.85
25526;BME280;13424;48.424;11.258;2023-03-13T01:31:30;95186.13;;;10.37;70.83
25526;BME280;13424;48.424;11.258;2023-03-13T01:33:59;95181.06;;;10.40;70.96
25526;BME280;13424;48.424;11.258;2023-03-13T01:36:26;95176.63;;;10.24;70.60
25526;BME280;13424;48.424;11.258;2023-03-13T01:38:56;95171.97;;;9.97;71.18
25526;BME280;13424;48.424;11.258;2023-03-13T01:41:23;95160.88;;;9.67;72.25
25526;BME280;13424;48.424;11.258;2023-03-13T01:43:50;95158.66;;;9.42;73.62
25526;BME280;13424;48.424;11.258;2023-03-13T01:46:27;95152.69;;;9.35;74.03
25526;BME280;13424;48.424;11.258;2023-03-13T01:49:21;95167.50;;;9.31;74.27
25526;BME280;13424;48.424;11.258;2023-03-13T01:52:02;95157.59;;;9.43;74.19
25526;BME280;13424;48.424;11.258;2023-03-13T01:54:39;95151.06;;;9.34;75.15
25526;BME280;13424;48.424;11.258;2023-03-13T01:57:24;95157.84;;;9.41;74.90
25526;BME280;13424;48.424;11.258;2023-03-13T02:00:05;95142.19;;;9.11;75.97
25526;BME280;13424;48.424;11.258;2023-03-13T02:02:41;95150.91;;;9.57;74.37
25526;BME280;13424;48.424;11.258;2023-03-13T02:05:08;95150.72;;;9.47;74.96
25526;BME280;13424;48.424;11.258;2023-03-13T02:07:47;95152.66;;;9.51;74.51
25526;BME280;13424;48.424;11.258;2023-03-13T02:10:15;95143.31;;;9.49;74.73
25526;BME280;13424;48.424;11.258;2023-03-13T02:16:56;95140.56;;;9.44;75.03
25526;BME280;13424;48.424;11.258;2023-03-13T02:19:47;95142.31;;;9.55;74.33
25526;BME280;13424;48.424;11.258;2023-03-13T02:22:33;95143.47;;;9.59;74.16
25526;BME280;13424;48.424;11.258;2023-03-13T02:28:00;95144.53;;;9.58;74.48
25526;BME280;13424;48.424;11.258;2023-03-13T02:30:30;95142.56;;;9.70;73.83
25526;BME280;13424;48.424;11.258;2023-03-13T02:32:58;95145.53;;;9.74;73.49
25526;BME280;13424;48.424;11.258;2023-03-13T02:35:24;95148.94;;;9.69;73.71
25526;BME280;13424;48.424;11.258;2023-03-13T02:37:54;95142.47;;;9.82;73.15
25526;BME280;13424;48.424;11.258;2023-03-13T02:40:29;95149.22;;;9.90;72.90
25526;BME280;13424;48.424;11.258;2023-03-13T02:42:57;95148.34;;;9.84;73.58
25526;BME280;13424;48.424;11.258;2023-03-13T02:45:25;95141.41;;;9.83;73.06
25526;BME280;13424;48.424;11.258;2023-03-13T02:47:51;95142.94;;;9.79;73.41
25526;BME280;13424;48.424;11.258;2023-03-13T02:50:17;95142.44;;;10.21;71.91
25526;BME280;13424;48.424;11.258;2023-03-13T02:52:55;95139.44;;;10.17;71.78
25526;BME280;13424;48.424;11.258;2023-03-13T02:55:34;95150.97;;;10.01;72.13
25526;BME280;13424;48.424;11.258;2023-03-13T02:58:01;95138.88;;;10.32;71.18
25526;BME280;13424;48.424;11.258;2023-03-13T03:00:32;95148.16;;;10.29;70.83
25526;BME280;13424;48.424;11.258;2023-03-13T03:02:58;95148.72;;;10.53;70.54
25526;BME280;13424;48.424;11.258;2023-03-13T03:05:23;95145.97;;;10.26;71.13
25526;BME280;13424;48.424;11.258;2023-03-13T03:07:50;95148.50;;;10.16;71.48
25526;BME280;13424;48.424;11.258;2023-03-13T03:10:17;95143.91;;;10.28;71.34
25526;BME280;13424;48.424;11.258;2023-03-13T03:16:11;95141.63;;;10.20;71.55
25526;BME280;13424;48.424;11.258;2023-03-13T03:18:38;95139.72;;;10.38;70.51
25526;BME280;13424;48.424;11.258;2023-03-13T03:21:04;95136.00;;;10.39;70.84
25526;BME280;13424;48.424;11.258;2023-03-13T03:23:43;95139.16;;;10.14;70.87
25526;BME280;13424;48.424;11.258;2023-03-13T03:26:09;95142.94;;;9.96;71.45
25526;BME280;13424;48.424;11.258;2023-03-13T03:28:35;95142.94;;;9.96;71.50
25526;BME280;13424;48.424;11.258;2023-03-13T03:31:08;95141.72;;;10.25;70.57
25526;BME280;13424;48.424;11.258;2023-03-13T03:33:36;95128.28;;;10.37;70.20
25526;BME280;13424;48.424;11.258;2023-03-13T03:36:08;95128.53;;;9.97;71.32
25526;BME280;13424;48.424;11.258;2023-03-13T03:38:35;95125.72;;;9.87;71.82
25526;BME280;13424;48.424;11.258;2023-03-13T03:41:02;95122.00;;;10.26;70.53
25526;BME280;13424;48.424;11.258;2023-03-13T03:43:29;95106.22;;;10.03;71.84
25526;BME280;13424;48.424;11.258;2023-03-13T03:45:55;95107.53;;;10.00;71.68
25526;BME280;13424;48.424;11.258;2023-03-13T03:48:21;95100.19;;;10.29;70.66
25526;BME280;13424;48.424;11.258;2023-03-13T03:50:47;95105.84;;;10.16;70.96
25526;BME280;13424;48.424;11.258;2023-03-13T03:53:14;95096.25;;;10.15;70.75
25526;BME280;13424;48.424;11.258;2023-03-13T03:55:40;95086.41;;;9.55;72.65
25526;BME280;13424;48.424;11.258;2023-03-13T03:58:06;95081.78;;;9.29;73.37
25526;BME280;13424;48.424;11.258;2023-03-13T04:00:54;95081.88;;;9.34;73.59
25526;BME280;13424;48.424;11.258;2023-03-13T04:03:20;95079.00;;;9.57;73.54
25526;BME280;13424;48.424;11.258;2023-03-13T04:05:46;95077.13;;;9.74;72.02
25526;BME280;13424;48.424;11.258;2023-03-13T04:08:12;95074.00;;;9.61;72.63
25526;BME280;13424;48.424;11.258;2023-03-13T04:14:53;95063.91;;;9.85;72.24
25526;BME280;13424;48.424;11.258;2023-03-13T04:17:20;95062.19;;;9.73;72.16
25526;BME280;13424;48.424;11.258;2023-03-13T04:19:46;95062.41;;;9.50;72.82
25526;BME280;13424;48.424;11.258;2023-03-13T04:22:12;95056.38;;;9.38;72.36
25526;BME280;13424;48.424;11.258;2023-03-13T04:24:44;95049.50;;;9.81;71.82
25526;BME280;13424;48.424;11.258;2023-03-13T04:27:10;95040.56;;;9.31;72.80
25526;BME280;13424;48.424;11.258;2023-03-13T04:29:36;95029.97;;;9.53;72.43
25526;BME280;13424;48.424;11.258;2023-03-13T04:32:10;95034.59;;;9.41;72.87
25526;BME280;13424;48.424;11.258;2023-03-13T04:34:43;95027.50;;;9.30;73.04
25526;BME280;13424;48.424;11.258;2023-03-13T04:37:32;95015.84;;;9.14;73.38
25526;BME280;13424;48.424;11.258;2023-03-13T04:40:04;95014.16;;;9.25;73.22
25526;BME280;13424;48.424;11.258;2023-03-13T04:43:01;95012.06;;;9.10;74.08
25526;BME280;13424;48.424;11.258;2023-03-13T04:45:51;95010.47;;;8.92;74.16
25526;BME280;13424;48.424;11.258;2023-03-13T04:48:45;95015.59;;;9.15;73.82
25526;BME280;13424;48.424;11.258;2023-03-13T04:51:31;95010.28;;;9.15;73.70
25526;BME280;13424;48.424;11.258;2023-03-13T04:54:20;95016.41;;;9.33;73.45
25526;BME280;13424;48.424;11.258;2023-03-13T04:57:11;95009.81;;;9.18;73.77
25526;BME280;13424;48.424;11.258;2023-03-13T04:59:58;95008.19;;;9.17;73.80
25526;BME280;13424;48.424;11.258;2023-03-13T05:02:43;95008.72;;;9.36;72.70
25526;BME280;13424;48.424;11.258;2023-03-13T05:05:26;95008.84;;;9.46;73.05
25526;BME280;13424;48.424;11.258;2023-03-13T05:08:11;95008.94;;;9.73;72.21
25526;BME280;13424;48.424;11.258;2023-03-13T05:10:58;95004.94;;;9.32;73.59
25526;BME280;13424;48.424;11.258;2023-03-13T05:13:24;94994.19;;;9.05;74.42
25526;BME280;13424;48.424;11.258;2023-03-13T05:15:56;95008.41;;;9.55;72.63
25526;BME280;13424;48.424;11.258;2023-03-13T05:18:38;95021.13;;;9.09;74.42
25526;BME280;13424;48.424;11.258;2023-03-13T05:21:21;95004.34;;;9.69;71.96
25526;BME280;13424;48.424;11.258;2023-03-13T05:23:53;94998.00;;;9.53;72.29
25526;BME280;13424;48.424;11.258;2023-03-13T05:26:37;94981.53;;;9.78;72.04
25526;BME280;13424;48.424;11.258;2023-03-13T05:29:28;94959.88;;;9.47;72.98
25526;BME280;13424;48.424;11.258;2023-03-13T05:31:53;94951.22;;;9.57;72.45
25526;BME280;13424;48.424;11.258;2023-03-13T05:34:38;94979.97;;;9.38;73.37
25526;BME280;13424;48.424;11.258;2023-03-13T05:37:21;94973.41;;;9.90;72.02
25526;BME280;13424;48.424;11.258;2023-03-13T05:39:58;94985.84;;;9.57;72.75
25526;BME280;13424;48.424;11.258;2023-03-13T05:42:38;94950.81;;;9.92;71.70
25526;BME280;13424;48.424;11.258;2023-03-13T05:45:22;94962.97;;;10.10;71.16
25526;BME280;13424;48.424;11.258;2023-03-13T05:48:01;94955.22;;;9.82;72.53
25526;BME280;13424;48.424;11.258;2023-03-13T05:50:38;94951.41;;;9.99;71.80
25526;BME280;13424;48.424;11.258;2023-03-13T05:53:32;94960.41;;;10.20;71.23
25526;BME280;13424;48.424;11.258;2023-03-13T05:56:08;94960.13;;;9.95;72.04
25526;BME280;13424;48.424;11.258;2023-03-13T05:58:48;94962.41;;;10.08;71.37
25526;BME280;13424;48.424;11.258;2023-03-13T06:01:33;94967.47;;;10.31;71.04
25526;BME280;13424;48.424;11.258;2023-03-13T06:04:05;94950.53;;;10.43;70.33
25526;BME280;13424;48.424;11.258;2023-03-13T06:06:33;94953.22;;;10.48;70.85
25526;BME280;13424;48.424;11.258;2023-03-13T06:09:00;94944.47;;;10.52;70.41
25526;BME280;13424;48.424;11.258;2023-03-13T06:11:29;94940.28;;;10.07;71.68
25526;BME280;13424;48.424;11.258;2023-03-13T06:13:55;94933.47;;;9.90;72.20
25526;BME280;13424;48.424;11.258;2023-03-13T06:16:36;94932.53;;;10.28;71.83
25526;BME280;13424;48.424;11.258;2023-03-13T06:19:20;94932.34;;;10.40;70.68
25526;BME280;13424;48.424;11.258;2023-03-13T06:21:49;94940.41;;;10.50;69.99
25526;BME280;13424;48.424;11.258;2023-03-13T06:24:15;94933.03;;;10.03;72.16
25526;BME280;13424;48.424;11.258;2023-03-13T06:26:41;94938.22;;;10.42;70.77
25526;BME280;13424;48.424;11.258;2023-03-13T06:29:07;94942.06;;;10.56;70.05
25526;BME280;13424;48.424;11.258;2023-03-13T06:31:33;94940.53;;;10.60;69.93
25526;BME280;13424;48.424;11.258;2023-03-13T06:33:59;94940.66;;;10.80;69.27
25526;BME280;13424;48.424;11.258;2023-03-13T06:36:25;94935.50;;;11.11;68.41
25526;BME280;13424;48.424;11.258;2023-03-13T06:38:50;94925.41;;;11.18;68.68
25526;BME280;13424;48.424;11.258;2023-03-13T06:41:16;94927.53;;;11.16;68.88
25526;BME280;13424;48.424;11.258;2023-03-13T06:47:34;94936.06;;;11.75;67.18
25526;BME280;13424;48.424;11.258;2023-03-13T06:50:00;94922.47;;;11.77;67.14
25526;BME280;13424;48.424;11.258;2023-03-13T06:52:25;94918.78;;;11.88;67.13
25526;BME280;13424;48.424;11.258;2023-03-13T06:54:52;94914.78;;;11.86;67.44
25526;BME280;13424;48.424;11.258;2023-03-13T06:57:18;94922.00;;;11.95;67.09
25526;BME280;13424;48.424;11.258;2023-03-13T06:59:44;94924.66;;;11.95;67.38
25526;BME280;13424;48.424;11.258;2023-03-13T07:02:12;94928.19;;;12.11;67.17
25526;BME280;13424;48.424;11.258;2023-03-13T07:04:39;94932.47;;;12.17;67.26
25526;BME280;13424;48.424;11.258;2023-03-13T07:07:05;94933.53;;;12.32;66.47
25526;BME280;13424;48.424;11.258;2023-03-13T07:09:30;94927.41;;;12.51;66.39
25526;BME280;13424;48.424;11.258;2023-03-13T07:11:56;94923.66;;;12.68;65.76
25526;BME280;13424;48.424;11.258;2023-03-13T07:14:23;94935.16;;;12.58;66.39
25526;BME280;13424;48.424;11.258;2023-03-13T07:16:49;94928.72;;;12.69;66.57
25526;BME280;13424;48.424;11.258;2023-03-13T07:23:28;94915.63;;;12.68;67.31
25526;BME280;13424;48.424;11.258;2023-03-13T07:25:59;94914.56;;;12.74;66.39
25526;BME280;13424;48.424;11.258;2023-03-13T07:28:26;94913.44;;;13.00;66.16
25526;BME280;13424;48.424;11.258;2023-03-13T07:30:52;94922.78;;;13.28;65.57
25526;BME280;13424;48.424;11.258;2023-03-13T07:33:18;94920.06;;;13.38;65.07
25526;BME280;13424;48.424;11.258;2023-03-13T07:35:49;94905.34;;;13.36;65.72
25526;BME280;13424;48.424;11.258;2023-03-13T07:38:15;94903.38;;;13.62;64.84
25526;BME280;13424;48.424;11.258;2023-03-13T07:40:51;94904.69;;;13.64;64.57
25526;BME280;13424;48.424;11.258;2023-03-13T07:43:39;94899.66;;;14.02;63.21
25526;BME280;13424;48.424;11.258;2023-03-13T07:46:07;94892.13;;;14.09;64.04
25526;BME280;13424;48.424;11.258;2023-03-13T07:48:36;94898.41;;;14.29;64.27
25526;BME280;13424;48.424;11.258;2023-03-13T07:51:09;94890.94;;;14.25;62.49
25526;BME280;13424;48.424;11.258;2023-03-13T07:54:27;94895.91;;;14.76;62.60
25526;BME280;13424;48.424;11.258;2023-03-13T07:56:53;94891.44;;;14.67;61.69
25526;BME280;13424;48.424;11.258;2023-03-13T07:59:19;94897.22;;;14.50;62.62
25526;BME280;13424;48.424;11.258;2023-03-13T08:01:45;94881.81;;;14.61;62.59
25526;BME280;13424;48.424;11.258;2023-03-13T08:04:12;94895.50;;;14.64;62.99
25526;BME280;13424;48.424;11.258;2023-03-13T08:06:38;94903.28;;;14.95;62.94
25526;BME280;13424;48.424;11.258;2023-03-13T08:09:52;94891.34;;;14.48;61.89
25526;BME280;13424;48.424;11.258;2023-03-13T08:12:18;94897.00;;;14.46;62.69
25526;BME280;13424;48.424;11.258;2023-03-13T08:14:43;94905.34;;;14.35;62.78
25526;BME280;13424;48.424;11.258;2023-03-13T08:17:09;94910.59;;;14.11;63.64
25526;BME280;13424;48.424;11.258;2023-03-13T08:19:35;94916.00;;;14.45;63.14
25526;BME280;13424;48.424;11.258;2023-03-13T08:22:01;94903.03;;;14.62;63.43
25526;BME280;13424;48.424;11.258;2023-03-13T08:24:27;94909.59;;;14.41;63.11
25526;BME280;13424;48.424;11.258;2023-03-13T08:26:53;94908.28;;;14.77;63.86
25526;BME280;13424;48.424;11.258;2023-03-13T08:29:19;94917.88;;;15.13;62.62
25526;BME280;13424;48.424;11.258;2023-03-13T08:31:47;94917.09;;;15.07;63.14
25526;BME280;13424;48.424;11.258;2023-03-13T08:34:15;94912.34;;;14.99;61.89
25526;BME280;13424;48.424;11.258;2023-03-13T08:36:41;94908.06;;;14.98;62.77
25526;BME280;13424;48.424;11.258;2023-03-13T08:39:16;94899.94;;;14.79;62.39
25526;BME280;13424;48.424;11.258;2023-03-13T08:41:42;94903.97;;;14.76;63.86
25526;BME280;13424;48.424;11.258;2023-03-13T08:44:11;94901.53;;;14.80;63.17
25526;BME280;13424;48.424;11.258;2023-03-13T08:46:38;94905.13;;;14.31;63.46
25526;BME280;13424;48.424;11.258;2023-03-13T08:49:05;94903.34;;;15.14;63.70
25526;BME280;13424;48.424;11.258;2023-03-13T08:51:32;94905.66;;;14.96;64.38
25526;BME280;13424;48.424;11.258;2023-03-13T08:57:46;94895.41;;;15.51;62.43
25526;BME280;13424;48.424;11.258;2023-03-13T09:00:13;94898.06;;;15.32;61.69
25526;BME280;13424;48.424;11.258;2023-03-13T09:02:39;94907.09;;;15.42;62.04
25526;BME280;13424;48.424;11.258;2023-03-13T09:05:05;94889.00;;;15.23;62.07
25526;BME280;13424;48.424;11.258;2023-03-13T09:07:31;94890.03;;;15.51;61.26
25526;BME280;13424;48.424;11.258;2023-03-13T09:09:57;94885.00;;;15.21;62.27
25526;BME280;13424;48.424;11.258;2023-03-13T09:12:23;94892.94;;;15.55;62.64
25526;BME280;13424;48.424;11.258;2023-03-13T09:14:55;94897.34;;;15.46;62.32
25526;BME280;13424;48.424;11.258;2023-03-13T09:17:21;94890.16;;;15.41;62.95
25526;BME280;13424;48.424;11.258;2023-03-13T09:19:46;94873.50;;;15.39;62.56
25526;BME280;13424;48.424;11.258;2023-03-13T09:22:12;94884.31;;;15.58;61.50
25526;BME280;13424;48.424;11.258;2023-03-13T09:24:42;94867.88;;;16.02;61.04
25526;BME280;13424;48.424;11.258;2023-03-13T09:27:09;94874.41;;;16.34;61.72
25526;BME280;13424;48.424;11.258;2023-03-13T09:29:35;94854.09;;;16.41;60.90
25526;BME280;13424;48.424;11.258;2023-03-13T09:32:04;94869.59;;;16.82;62.11
25526;BME280;13424;48.424;11.258;2023-03-13T09:34:30;94866.50;;;16.75;60.47
25526;BME280;13424;48.424;11.258;2023-03-13T09:36:56;94864.25;;;16.96;59.38
25526;BME280;13424;48.424;11.258;2023-03-13T09:39:22;94857.19;;;17.27;59.35
25526;BME280;13424;48.424;11.258;2023-03-13T09:42:04;94847.28;;;17.37;59.83
25526;BME280;13424;48.424;11.258;2023-03-13T09:45:05;94845.59;;;17.13;58.22
25526;BME280;13424;48.424;11.258;2023-03-13T09:47:47;94837.00;;;16.97;59.34
25526;BME280;13424;48.424;11.258;2023-03-13T09:50:36;94845.59;;;17.27;58.98
25526;BME280;13424;48.424;11.258;2023-03-13T09:53:15;94847.31;;;17.23;57.72
25526;BME280;13424;48.424;11.258;2023-03-13T09:55:42;94839.13;;;17.55;57.31
25526;BME280;13424;48.424;11.258;2023-03-13T09:58:24;94824.53;;;17.43;57.94
25526;BME280;13424;48.424;11.258;2023-03-13T10:01:03;94820.03;;;16.97;57.36
25526;BME280;13424;48.424;11.258;2023-03-13T10:03:47;94825.75;;;17.23;57.42
25526;BME280;13424;48.424;11.258;2023-03-13T10:06:19;94816.38;;;16.93;57.96
25526;BME280;13424;48.424;11.258;2023-03-13T10:08:45;94818.75;;;17.22;56.93
25526;BME280;13424;48.424;11.258;2023-03-13T10:11:23;94818.34;;;17.70;56.34
25526;BME280;13424;48.424;11.258;2023-03-13T10:14:05;94815.03;;;17.87;57.89
25526;BME280;13424;48.424;11.258;2023-03-13T10:16:47;94812.91;;;18.42;55.71
25526;BME280;13424;48.424;11.258;2023-03-13T10:19:21;94809.41;;;18.19;55.84
25526;BME280;13424;48.424;11.258;2023-03-13T10:21:51;94804.47;;;17.99;55.86
25526;BME280;13424;48.424;11.258;2023-03-13T10:24:33;94796.97;;;17.73;57.62
25526;BME280;13424;48.424;11.258;2023-03-13T10:27:01;94799.34;;;17.61;56.14
25526;BME280;13424;48.424;11.258;2023-03-13T10:29:29;94802.53;;;17.77;57.48
25526;BME280;13424;48.424;11.258;2023-03-13T10:32:04;94804.78;;;17.47;56.73
25526;BME280;13424;48.424;11.258;2023-03-13T10:34:50;94788.31;;;17.49;56.59
25526;BME280;13424;48.424;11.258;2023-03-13T10:37:32;94787.50;;;17.48;56.98
25526;BME280;13424;48.424;11.258;2023-03-13T10:40:21;94776.41;;;17.64;56.66
25526;BME280;13424;48.424;11.258;2023-03-13T10:42:49;94791.47;;;18.01;56.52
25526;BME280;13424;48.424;11.258;2023-03-13T10:45:18;94783.31;;;17.92;55.97
25526;BME280;13424;48.424;11.258;2023-03-13T10:47:56;94770.13;;;17.91;55.86
25526;BME280;13424;48.424;11.258;2023-03-13T10:50:25;94766.19;;;18.10;56.12
25526;BME280;13424;48.424;11.258;2023-03-13T10:52:51;94780.63;;;18.14;55.45
25526;BME280;13424;48.424;11.258;2023-03-13T10:55:24;94774.66;;;18.18;55.26
25526;BME280;13424;48.424;11.258;2023-03-13T10:58:04;94775.84;;;17.89;56.11
25526;BME280;13424;48.424;11.258;2023-03-13T11:00:36;94785.16;;;17.83;57.06
25526;BME280;13424;48.424;11.258;2023-03-13T11:03:17;94784.91;;;18.16;56.59
25526;BME280;13424;48.424;11.258;2023-03-13T11:05:57;94789.81;;;18.58;55.93
25526;BME280;13424;48.424;11.258;2023-03-13T11:08:36;94786.44;;;18.75;57.13
25526;BME280;13424;48.424;11.258;2023-03-13T11:11:17;94784.91;;;18.83;57.43
25526;BME280;13424;48.424;11.258;2023-03-13T11:13:44;94771.19;;;18.79;55.33
25526;BME280;13424;48.424;11.258;2023-03-13T11:16:27;94777.31;;;18.93;55.48
25526;BME280;13424;48.424;11.258;2023-03-13T11:19:34;94763.03;;;19.02;55.77
25526;BME280;13424;48.424;11.258;2023-03-13T11:22:06;94752.50;;;18.91;55.18
25526;BME280;13424;48.424;11.258;2023-03-13T11:27:48;94742.38;;;18.97;55.59
25526;BME280;13424;48.424;11.258;2023-03-13T11:30:41;94745.66;;;18.85;56.22
25526;BME280;13424;48.424;11.258;2023-03-13T11:38:38;94747.81;;;19.06;56.03
25526;BME280;13424;48.424;11.258;2023-03-13T11:50:36;94742.00;;;19.47;55.34
25526;BME280;13424;48.424;11.258;2023-03-13T11:53:29;94750.50;;;19.80;55.32
25526;BME280;13424;48.424;11.258;2023-03-13T11:56:14;94747.66;;;19.19;55.66
25526;BME280;13424;48.424;11.258;2023-03-13T11:58:59;94754.09;;;19.49;55.99
25526;BME280;13424;48.424;11.258;2023-03-13T12:01:42;94752.34;;;19.36;56.67
25526;BME280;13424;48.424;11.258;2023-03-13T12:04:34;94740.09;;;18.82;56.44
25526;BME280;13424;48.424;11.258;2023-03-13T12:09:53;94732.31;;;19.46;55.85
25526;BME280;13424;48.424;11.258;2023-03-13T12:18:19;94732.19;;;19.94;54.60
25526;BME280;13424;48.424;11.258;2023-03-13T12:21:16;94714.31;;;19.50;55.65
25526;BME280;13424;48.424;11.258;2023-03-13T12:24:25;94714.81;;;19.52;55.59
25526;BME280;13424;48.424;11.258;2023-03-13T12:27:29;94698.63;;;19.69;53.69
25526;BME280;13424;48.424;11.258;2023-03-13T12:30:06;94705.50;;;20.57;53.76
25526;BME280;13424;48.424;11.258;2023-03-13T12:33:05;94704.88;;;20.43;55.42
25526;BME280;13424;48.424;11.258;2023-03-13T12:35:39;94700.81;;;20.75;53.42
25526;BME280;13424;48.424;11.258;2023-03-13T12:38:36;94699.28;;;20.65;54.61
25526;BME280;13424;48.424;11.258;2023-03-13T12:41:26;94680.84;;;20.41;52.99
25526;BME280;13424;48.424;11.258;2023-03-13T12:43:53;94676.84;;;20.56;54.64
25526;BME280;13424;48.424;11.258;2023-03-13T12:46:46;94671.47;;;20.39;52.97
25526;BME280;13424;48.424;11.258;2023-03-13T12:52:45;94663.00;;;20.40;54.94
25526;BME280;13424;48.424;11.258;2023-03-13T13:01:02;94646.31;;;21.06;53.88
25526;BME280;13424;48.424;11.258;2023-03-13T13:03:48;94636.88;;;21.12;54.22
25526;BME280;13424;48.424;11.258;2023-03-13T13:06:24;94635.41;;;21.14;52.29
25526;BME280;13424;48.424;11.258;2023-03-13T13:16:53;94609.03;;;21.03;52.64
25526;BME280;13424;48.424;11.258;2023-03-13T13:25:27;94595.69;;;21.39;51.83
25526;BME280;13424;48.424;11.258;2023-03-13T13:32:13;94577.22;;;21.33;52.97
25526;BME280;13424;48.424;11.258;2023-03-13T13:39:51;94561.31;;;21.31;50.92
25526;BME280;13424;48.424;11.258;2023-03-13T13:45:03;94549.75;;;21.55;50.71
25526;BME280;13424;48.424;11.258;2023-03-13T13:47:48;94546.91;;;21.85;50.91
25526;BME280;13424;48.424;11.258;2023-03-13T13:50:27;94538.38;;;21.62;51.38
25526;BME280;13424;48.424;11.258;2023-03-13T13:55:42;94536.50;;;21.74;50.83
25526;BME280;13424;48.424;11.258;2023-03-13T13:58:19;94526.44;;;21.75;50.60
25526;BME280;13424;48.424;11.258;2023-03-13T14:01:03;94516.91;;;21.69;50.64
25526;BME280;13424;48.424;11.258;2023-03-13T14:03:38;94508.09;;;21.60;50.10
25526;BME280;13424;48.424;11.258;2023-03-13T14:06:22;94496.59;;;21.87;50.08
25526;BME280;13424;48.424;11.258;2023-03-13T14:08:53;94490.50;;;21.90;49.47
25526;BME280;13424;48.424;11.258;2023-03-13T14:11:26;94493.44;;;21.73;51.09
25526;BME280;13424;48.424;11.258;2023-03-13T14:14:18;94489.34;;;21.79;50.75
25526;BME280;13424;48.424;11.258;2023-03-13T14:16:55;94473.81;;;21.55;50.47
25526;BME280;13424;48.424;11.258;2023-03-13T14:19:29;94479.19;;;22.00;50.14
25526;BME280;13424;48.424;11.258;2023-03-13T14:22:10;94465.19;;;22.35;49.73
25526;BME280;13424;48.424;11.258;2023-03-13T14:24:38;94463.56;;;21.73;49.90
25526;BME280;13424;48.424;11.258;2023-03-13T14:27:16;94452.63;;;22.18;49.88
25526;BME280;13424;48.424;11.258;2023-03-13T14:33:09;94435.34;;;22.11;49.78
25526;BME280;13424;48.424;11.258;2023-03-13T14:35:34;94437.38;;;22.26;49.92
25526;BME280;13424;48.424;11.258;2023-03-13T14:38:02;94430.78;;;22.02;49.93
25526;BME280;13424;48.424;11.258;2023-03-13T14:40:35;94424.13;;;22.37;49.88
25526;BME280;13424;48.424;11.258;2023-03-13T14:43:02;94412.72;;;21.82;49.60
25526;BME280;13424;48.424;11.258;2023-03-13T14:45:31;94412.78;;;21.61;50.20
25526;BME280;13424;48.424;11.258;2023-03-13T14:48:16;94399.38;;;21.89;49.62
25526;BME280;13424;48.424;11.258;2023-03-13T14:50:43;94399.38;;;22.14;51.06
25526;BME280;13424;48.424;11.258;2023-03-13T14:53:18;94396.41;;;22.07;50.33
25526;BME280;13424;48.424;11.258;2023-03-13T14:55:45;94402.09;;;22.14;49.55
25526;BME280;13424;48.424;11.258;2023-03-13T14:58:28;94390.97;;;22.07;50.54